»·PEaware :: N6262K KSMX-KBFL

N6262K :: KSMX-KBFL

FLIGHT INFORMATION

Flight Status: Arrived
Operator: Privately registered:
United States
More flights under this callsign
Pilot: Judson K. (15650)
Aircraft: CESSNA 172 SKYHAWK
(C172)
More flights by this aircraft type
Origin: KSMX Santa Maria Pub/Capt Hancock
United States
Destination: KBFL Meadows
United States
More flights between these airports :: More routes between these airports
Route: FLW
File this flight plan on PilotEdge
Remarks: CAT 5 TEST
Altitude:
(Current/Filed)
5,000ft
Speed:
(Current/Filed)
115kts
Departed: 09-Jun-17 02:32 PM
Arrived: 09-Jun-17 03:16 PM
Distance/Time
Traveled:
76nm/0:43
Distance/Time
To Go:
Arrived

Flight Plot

Page will automatically refresh every two minutes.


Map Options




Map Legend


Flown Route
Filed Route
Departure Airport
Arrival Airport
Navaid (VOR, NDB)
Fix

Horizontal Profiles

Position Reports

Time Latitude Longitude Heading Altitude Ground
Speed
09-Jun-17 14:21 34.900709 -120.451470 222 264ft 0kts
09-Jun-17 14:22 34.900709 -120.451470 222 264ft 0kts
09-Jun-17 14:23 34.900709 -120.451470 222 264ft 0kts
09-Jun-17 14:24 34.900709 -120.451470 222 264ft 0kts
09-Jun-17 14:25 34.900709 -120.451470 222 264ft 0kts
09-Jun-17 14:26 34.900709 -120.451470 222 264ft 0kts
09-Jun-17 14:27 34.900709 -120.451470 222 264ft 0kts
09-Jun-17 14:28 34.900709 -120.451470 222 264ft 0kts
09-Jun-17 14:29 34.900706 -120.451473 222 264ft 0kts
09-Jun-17 14:30 34.898027 -120.449573 134 264ft 20kts
09-Jun-17 14:31 34.893576 -120.444642 205 264ft 6kts
09-Jun-17 14:32 34.893565 -120.444649 206 264ft 0kts
09-Jun-17 14:33 34.893133 -120.444945 195 264ft 0kts
09-Jun-17 14:34 34.899468 -120.454054 310 568ft 67kts
09-Jun-17 14:35 34.915025 -120.462415 21 1397ft 78kts
09-Jun-17 14:36 34.922072 -120.435027 70 2182ft 88kts
09-Jun-17 14:37 34.928500 -120.403029 67 2973ft 101kts
09-Jun-17 14:38 34.936820 -120.369866 64 3780ft 104kts
09-Jun-17 14:39 34.946010 -120.336937 64 4561ft 106kts
09-Jun-17 14:40 34.956196 -120.300671 73 5016ft 131kts
09-Jun-17 14:41 34.966364 -120.259207 65 5005ft 122kts
09-Jun-17 14:42 34.977835 -120.221549 64 5007ft 117kts
09-Jun-17 14:43 34.989612 -120.184781 63 5008ft 116kts
09-Jun-17 14:44 35.001619 -120.147793 63 5010ft 120kts
09-Jun-17 14:45 35.014089 -120.109436 63 5008ft 122kts
09-Jun-17 14:46 35.026604 -120.070922 63 5008ft 122kts
09-Jun-17 14:47 35.039196 -120.032161 63 5002ft 124kts
09-Jun-17 14:48 35.051772 -119.993377 63 5009ft 122kts
09-Jun-17 14:49 35.064338 -119.954576 63 5009ft 122kts
09-Jun-17 14:50 35.076803 -119.916031 63 5060ft 118kts
09-Jun-17 14:51 35.089072 -119.878124 63 5083ft 122kts
09-Jun-17 14:52 35.103282 -119.841943 56 5066ft 124kts
09-Jun-17 14:53 35.119282 -119.804378 58 5056ft 125kts
09-Jun-17 14:54 35.135313 -119.766639 58 5056ft 125kts
09-Jun-17 14:55 35.151556 -119.728422 58 5053ft 128kts
09-Jun-17 14:56 35.168463 -119.688511 57 4993ft 133kts
09-Jun-17 14:57 35.185274 -119.648865 56 4992ft 129kts
09-Jun-17 14:58 35.201781 -119.609999 56 4993ft 128kts
09-Jun-17 14:59 35.218160 -119.571330 56 4993ft 128kts
09-Jun-17 15:00 35.234514 -119.532659 56 4993ft 128kts
09-Jun-17 15:01 35.250901 -119.493867 56 4993ft 128kts
09-Jun-17 15:02 35.267196 -119.455243 55 4993ft 127kts
09-Jun-17 15:03 35.283355 -119.416910 55 4993ft 127kts
09-Jun-17 15:04 35.299633 -119.378268 56 4974ft 126kts
09-Jun-17 15:05 35.315146 -119.341354 56 4971ft 123kts
09-Jun-17 15:06 35.330719 -119.304286 56 4971ft 122kts
09-Jun-17 15:07 35.346167 -119.267476 56 4971ft 122kts
09-Jun-17 15:08 35.361811 -119.230097 56 4766ft 123kts
09-Jun-17 15:09 35.377165 -119.193413 56 4356ft 119kts
09-Jun-17 15:10 35.392240 -119.157373 56 3953ft 118kts
09-Jun-17 15:11 35.407040 -119.122424 55 3126ft 116kts
09-Jun-17 15:12 35.422576 -119.086537 73 1684ft 125kts
09-Jun-17 15:13 35.409736 -119.061107 135 1316ft 91kts
09-Jun-17 15:14 35.394251 -119.036680 64 1173ft 84kts
09-Jun-17 15:15 35.407765 -119.028081 310 1098ft 46kts
09-Jun-17 15:16 35.415230 -119.037144 308 889ft 45kts
09-Jun-17 15:17 35.424264 -119.047973 312 698ft 45kts
09-Jun-17 15:18 35.432664 -119.058286 306 509ft 34kts
09-Jun-17 15:19 35.434771 -119.060103 46 509ft 0kts
09-Jun-17 15:20 35.435339 -119.059388 44 509ft 0kts
09-Jun-17 15:21 35.434536 -119.054761 97 509ft 15kts
09-Jun-17 15:22 35.435653 -119.053558 125 509ft 0kts
09-Jun-17 15:23 35.435653 -119.053558 125 509ft 0kts
09-Jun-17 15:24 35.435653 -119.053558 125 509ft 0kts
09-Jun-17 15:25 35.435653 -119.053558 125 509ft 0kts
09-Jun-17 15:26 35.435653 -119.053558 125 509ft 0kts
09-Jun-17 15:27 35.435653 -119.053558 125 509ft 0kts
09-Jun-17 15:28 35.435653 -119.053558 125 509ft 0kts
09-Jun-17 15:29 35.435653 -119.053558 125 509ft 0kts
09-Jun-17 15:30 35.435653 -119.053558 125 509ft 0kts
09-Jun-17 15:31 35.435653 -119.053558 125 509ft 0kts
09-Jun-17 15:32 35.435653 -119.053558 125 509ft 0kts

Navigation Log

Ident Type
1. KSMX Airport
2. FLW Navaid
3. KBFL Airport